createdAt,value
2018-12-03T00:01:12.436Z,11.40
2018-12-03T00:03:41.685Z,11.40
2018-12-03T00:06:11.496Z,11.40
2018-12-03T00:08:40.792Z,11.30
2018-12-03T00:11:09.881Z,11.40
2018-12-03T00:13:50.757Z,11.30
2018-12-03T00:16:24.132Z,11.30
2018-12-03T00:18:53.514Z,11.30
2018-12-03T00:21:22.804Z,11.40
2018-12-03T00:24:01.990Z,11.40
2018-12-03T00:26:33.067Z,11.40
2018-12-03T00:29:03.001Z,11.40
2018-12-03T00:31:32.128Z,11.40
2018-12-03T00:34:01.452Z,11.40
2018-12-03T00:36:38.179Z,11.40
2018-12-03T00:39:37.234Z,11.30
2018-12-03T00:42:06.339Z,11.30
2018-12-03T00:44:35.532Z,11.30
2018-12-03T00:47:04.722Z,11.30
2018-12-03T00:49:33.818Z,11.30
2018-12-03T00:52:02.933Z,11.30
2018-12-03T00:54:32.136Z,11.40
2018-12-03T00:57:02.268Z,11.40
2018-12-03T00:59:31.427Z,11.40
2018-12-03T01:02:01.252Z,11.40
2018-12-03T01:04:30.742Z,11.40
2018-12-03T01:06:59.919Z,11.40
2018-12-03T01:09:29.277Z,11.40
2018-12-03T01:11:58.529Z,11.40
2018-12-03T01:14:27.523Z,11.40
2018-12-03T01:16:58.293Z,11.40
2018-12-03T01:19:27.518Z,11.40
2018-12-03T01:21:56.733Z,11.40
2018-12-03T01:24:25.911Z,11.30
2018-12-03T01:26:55.107Z,11.30
2018-12-03T01:29:25.259Z,11.30
2018-12-03T01:31:54.368Z,11.40
2018-12-03T01:34:23.632Z,11.40
2018-12-03T01:36:52.751Z,11.40
2018-12-03T01:39:21.884Z,11.30
2018-12-03T01:41:50.968Z,11.30
2018-12-03T01:44:20.140Z,11.30
2018-12-03T01:46:50.172Z,11.30
2018-12-03T01:49:20.437Z,11.30
2018-12-03T01:51:49.529Z,11.30
2018-12-03T01:54:18.687Z,11.40
2018-12-03T01:56:47.747Z,11.40
2018-12-03T01:59:16.628Z,11.40
2018-12-03T02:01:45.620Z,11.40
2018-12-03T02:04:14.715Z,11.40
2018-12-03T02:06:43.821Z,11.30
2018-12-03T02:09:13.637Z,11.30
2018-12-03T02:11:42.934Z,11.20
2018-12-03T02:14:12.066Z,11.20
2018-12-03T02:16:41.190Z,11.20
2018-12-03T02:19:10.493Z,11.20
2018-12-03T02:21:39.886Z,11.20
2018-12-03T02:24:09.241Z,11.30
2018-12-03T02:26:38.301Z,11.30
2018-12-03T02:29:07.513Z,11.30
2018-12-03T02:31:36.582Z,11.30
2018-12-03T02:34:06.295Z,11.30
2018-12-03T02:36:35.487Z,11.40
2018-12-03T02:39:07.655Z,11.40
2018-12-03T02:41:37.272Z,11.40
2018-12-03T02:44:06.465Z,11.40
2018-12-03T02:46:35.510Z,11.40
2018-12-03T02:49:05.164Z,11.40
2018-12-03T02:51:34.424Z,11.40
2018-12-03T02:54:03.638Z,11.40
2018-12-03T02:56:32.890Z,11.40
2018-12-03T02:59:02.023Z,11.40
2018-12-03T03:01:31.113Z,11.40
2018-12-03T03:04:00.727Z,11.40
2018-12-03T03:06:29.873Z,11.40
2018-12-03T03:09:08.550Z,11.40
2018-12-03T03:11:37.812Z,11.50
2018-12-03T03:14:06.961Z,11.50
2018-12-03T03:16:36.129Z,11.50
2018-12-03T03:19:05.845Z,11.50
2018-12-03T03:21:35.112Z,11.40
2018-12-03T03:24:04.354Z,11.40
2018-12-03T03:26:33.481Z,11.30
2018-12-03T03:29:02.621Z,11.30
2018-12-03T03:31:32.666Z,11.30
2018-12-03T03:34:02.293Z,11.20
2018-12-03T03:36:31.369Z,11.20
2018-12-03T03:39:00.673Z,11.20
2018-12-03T03:41:29.976Z,11.20
2018-12-03T03:43:59.111Z,11.20
2018-12-03T03:46:28.284Z,11.20
2018-12-03T03:48:57.475Z,11.30
2018-12-03T03:51:26.481Z,11.30
2018-12-03T03:53:55.581Z,11.20
2018-12-03T03:56:24.729Z,11.20
2018-12-03T03:58:53.830Z,11.30
2018-12-03T04:01:22.931Z,11.30
2018-12-03T04:03:53.169Z,11.30
2018-12-03T04:06:22.349Z,11.40
2018-12-03T04:08:51.447Z,11.40
2018-12-03T04:11:20.610Z,11.30
2018-12-03T04:14:08.137Z,11.40
2018-12-03T04:16:38.123Z,11.40
2018-12-03T04:19:08.907Z,11.40
2018-12-03T04:21:38.061Z,11.40
2018-12-03T04:24:07.218Z,11.40
2018-12-03T04:26:36.627Z,11.40
2018-12-03T04:29:05.978Z,11.40
2018-12-03T04:31:35.118Z,11.40
2018-12-03T04:34:04.444Z,11.40
2018-12-03T04:36:33.531Z,11.40
2018-12-03T04:39:02.614Z,11.40
2018-12-03T04:41:40.374Z,11.40
2018-12-03T04:44:09.517Z,11.40
2018-12-03T04:46:38.712Z,11.40
2018-12-03T04:49:08.018Z,11.40
2018-12-03T04:51:37.295Z,11.40
2018-12-03T04:54:08.236Z,11.40
2018-12-03T04:56:37.434Z,11.40
2018-12-03T04:59:07.116Z,11.50
2018-12-03T05:01:40.228Z,11.50
2018-12-03T05:04:11.294Z,11.50
2018-12-03T05:06:41.551Z,11.50
2018-12-03T05:09:12.120Z,11.50
2018-12-03T05:11:41.527Z,11.50
2018-12-03T05:14:12.267Z,11.50
2018-12-03T05:16:42.238Z,11.60
2018-12-03T05:19:11.481Z,11.50
2018-12-03T05:21:41.423Z,11.60
2018-12-03T05:24:10.551Z,11.60
2018-12-03T05:29:53.783Z,11.60
2018-12-03T05:32:37.215Z,11.60
2018-12-03T05:35:09.824Z,11.60
2018-12-03T05:37:39.107Z,11.60
2018-12-03T05:40:16.346Z,11.70
2018-12-03T05:42:45.951Z,11.70
2018-12-03T05:45:15.058Z,11.80
2018-12-03T05:47:44.421Z,11.70
2018-12-03T05:50:15.706Z,11.80
2018-12-03T05:52:46.057Z,11.80
2018-12-03T05:55:15.524Z,11.80
2018-12-03T05:57:47.311Z,11.90
2018-12-03T06:00:19.777Z,11.90
2018-12-03T06:02:48.929Z,11.90
2018-12-03T06:05:18.226Z,11.90
2018-12-03T06:07:47.653Z,11.90
2018-12-03T06:10:19.947Z,11.90
2018-12-03T06:12:49.200Z,11.90
2018-12-03T06:15:20.800Z,12.00
2018-12-03T06:17:52.403Z,12.00
2018-12-03T06:20:23.601Z,12.00
2018-12-03T06:22:54.035Z,12.00
2018-12-03T06:25:30.013Z,12.00
2018-12-03T06:27:59.313Z,12.00
2018-12-03T06:30:29.285Z,12.00
2018-12-03T06:32:58.429Z,12.00
2018-12-03T06:35:27.491Z,11.90
2018-12-03T06:37:56.702Z,11.90
2018-12-03T06:40:29.181Z,11.80
2018-12-03T06:42:58.320Z,11.80
2018-12-03T06:45:27.784Z,11.80
2018-12-03T06:48:00.898Z,11.70
2018-12-03T06:50:29.989Z,11.70
2018-12-03T06:52:59.844Z,11.70
2018-12-03T06:55:29.940Z,11.60
2018-12-03T06:57:59.537Z,11.60
2018-12-03T07:00:28.761Z,11.60
2018-12-03T07:02:58.772Z,11.50
2018-12-03T07:05:28.018Z,11.50
2018-12-03T07:08:00.131Z,11.40
2018-12-03T07:10:29.413Z,11.40
2018-12-03T07:13:04.720Z,11.40
2018-12-03T07:15:37.856Z,11.30
2018-12-03T07:18:08.513Z,11.30
2018-12-03T07:20:37.866Z,11.30
2018-12-03T07:23:08.642Z,11.30
2018-12-03T07:25:38.841Z,11.20
2018-12-03T07:28:08.135Z,11.20
2018-12-03T07:30:37.435Z,11.10
2018-12-03T07:33:07.476Z,11.10
2018-12-03T07:35:37.505Z,11.10
2018-12-03T07:38:07.032Z,11.10
2018-12-03T07:40:37.058Z,11.10
2018-12-03T07:43:06.817Z,11.00
2018-12-03T07:45:38.688Z,11.00
2018-12-03T07:48:08.151Z,11.00
2018-12-03T07:50:37.589Z,11.00
2018-12-03T07:53:06.920Z,11.10
2018-12-03T07:55:36.109Z,11.10
2018-12-03T07:58:08.700Z,11.10
2018-12-03T08:00:43.191Z,11.20
2018-12-03T08:03:12.669Z,11.30
2018-12-03T08:05:41.930Z,11.20
2018-12-03T08:08:11.271Z,11.20
2018-12-03T08:10:41.953Z,11.20
2018-12-03T08:13:12.891Z,11.30
2018-12-03T08:15:42.628Z,11.30
2018-12-03T08:18:14.542Z,11.30
2018-12-03T08:20:53.083Z,11.20
2018-12-03T08:23:43.696Z,11.20
2018-12-03T08:26:16.008Z,11.30
2018-12-03T08:28:46.777Z,11.40
2018-12-03T08:31:16.441Z,11.40
2018-12-03T08:33:46.573Z,11.50
2018-12-03T08:36:16.030Z,11.50
2018-12-03T08:38:45.408Z,11.60
2018-12-03T08:41:15.306Z,11.60
2018-12-03T08:43:44.786Z,11.60
2018-12-03T08:46:16.032Z,11.60
2018-12-03T08:48:45.497Z,11.60
2018-12-03T08:51:14.862Z,11.60
2018-12-03T08:53:47.469Z,11.60
2018-12-03T08:56:16.842Z,11.60
2018-12-03T08:58:50.007Z,11.60
2018-12-03T09:05:20.515Z,11.70
2018-12-03T09:11:04.641Z,11.80
2018-12-03T09:13:39.892Z,11.90
2018-12-03T09:19:21.949Z,11.80
2018-12-03T09:22:09.205Z,11.90
2018-12-03T09:24:51.810Z,12.00
2018-12-03T09:30:31.998Z,11.80
2018-12-03T09:33:17.648Z,11.90
2018-12-03T09:36:09.186Z,12.00
2018-12-03T09:38:59.814Z,12.00
2018-12-03T09:51:10.399Z,12.20
2018-12-03T09:53:51.537Z,12.20
2018-12-03T09:56:22.941Z,12.00
2018-12-03T09:59:10.671Z,12.00
2018-12-03T10:01:46.465Z,12.00
2018-12-03T10:10:35.503Z,12.20
2018-12-03T10:16:21.386Z,12.30
2018-12-03T10:19:08.815Z,12.30
2018-12-03T10:21:50.756Z,12.20
2018-12-03T10:24:23.365Z,12.20
2018-12-03T10:27:08.880Z,12.20
2018-12-03T10:29:44.140Z,12.30
2018-12-03T10:35:19.601Z,12.30
2018-12-03T10:37:49.215Z,12.30
2018-12-03T10:40:30.972Z,12.30
2018-12-03T10:49:11.384Z,12.30
2018-12-03T10:55:02.956Z,12.30
2018-12-03T11:01:04.249Z,12.20
2018-12-03T11:03:49.423Z,12.10
2018-12-03T11:06:24.726Z,12.00
2018-12-03T11:09:10.785Z,11.90
2018-12-03T11:17:52.597Z,12.00
2018-12-03T11:20:28.537Z,12.10
2018-12-03T11:22:57.882Z,12.10
2018-12-03T11:28:49.830Z,12.30
2018-12-03T11:34:37.872Z,12.40
2018-12-03T11:37:14.774Z,12.40
2018-12-03T11:39:56.304Z,12.50
2018-12-03T11:42:34.297Z,12.50
2018-12-03T11:57:20.027Z,12.40
2018-12-03T12:03:21.483Z,12.30
2018-12-03T12:05:57.842Z,12.40
2018-12-03T12:08:33.607Z,12.40
2018-12-03T12:11:10.384Z,12.40
2018-12-03T12:13:45.849Z,12.40
2018-12-03T12:22:15.928Z,12.40
2018-12-03T12:25:04.017Z,12.40
2018-12-03T12:27:37.214Z,12.40
2018-12-03T12:30:18.542Z,12.40
2018-12-03T12:32:48.066Z,12.40
2018-12-03T12:41:14.605Z,12.30
2018-12-03T12:43:54.242Z,12.30
2018-12-03T12:49:47.621Z,12.30
2018-12-03T12:52:17.191Z,12.30
2018-12-03T12:58:16.766Z,12.40
2018-12-03T13:00:58.461Z,12.40
2018-12-03T13:03:27.676Z,12.40
2018-12-03T13:06:09.527Z,12.50
2018-12-03T13:12:02.617Z,12.40
2018-12-03T13:14:44.161Z,12.40
2018-12-03T13:20:23.332Z,12.40
2018-12-03T13:26:00.215Z,12.30
2018-12-03T13:28:39.843Z,12.30
2018-12-03T13:31:21.636Z,12.30
2018-12-03T13:37:13.431Z,12.30
2018-12-03T13:39:42.977Z,12.30
2018-12-03T13:42:30.664Z,12.30
2018-12-03T13:45:00.164Z,12.30
2018-12-03T13:47:48.261Z,12.20
2018-12-03T13:50:29.511Z,12.20
2018-12-03T13:53:17.439Z,12.20
2018-12-03T13:55:46.588Z,12.20
2018-12-03T13:58:23.915Z,12.10
2018-12-03T14:04:19.923Z,12.10
2018-12-03T14:07:07.603Z,12.00
2018-12-03T14:09:59.106Z,11.90
2018-12-03T14:12:44.726Z,11.90
2018-12-03T14:21:38.268Z,11.80
2018-12-03T14:24:23.235Z,11.80
2018-12-03T14:26:52.855Z,11.80
2018-12-03T14:32:35.411Z,11.70
2018-12-03T14:35:21.002Z,11.70
2018-12-03T14:38:01.461Z,11.60
2018-12-03T14:40:48.561Z,11.60
2018-12-03T14:43:17.799Z,11.60
2018-12-03T14:46:09.792Z,11.50
2018-12-03T14:55:00.685Z,11.40
2018-12-03T14:57:44.079Z,11.30
2018-12-03T15:03:24.157Z,11.20
2018-12-03T15:06:01.120Z,11.10
2018-12-03T15:14:49.448Z,10.90
2018-12-03T15:17:26.941Z,11.00
2018-12-03T15:26:17.364Z,11.00
2018-12-03T15:28:55.183Z,11.00
2018-12-03T15:31:39.383Z,11.00
2018-12-03T15:34:21.256Z,11.00
2018-12-03T15:36:54.213Z,11.00
2018-12-03T15:42:45.850Z,11.00
2018-12-03T15:45:25.742Z,11.00
2018-12-03T15:51:12.968Z,11.00
2018-12-03T15:53:54.819Z,11.00
2018-12-03T15:56:36.701Z,11.00
2018-12-03T15:59:06.347Z,11.00
2018-12-03T16:01:54.120Z,11.00
2018-12-03T16:07:39.532Z,11.00
2018-12-03T16:10:16.497Z,11.00
2018-12-03T16:12:55.788Z,11.00
2018-12-03T16:15:32.051Z,11.00
2018-12-03T16:21:17.178Z,11.00
2018-12-03T16:24:06.967Z,11.00
2018-12-03T16:26:47.310Z,10.90
2018-12-03T16:29:27.884Z,11.00
2018-12-03T16:32:09.407Z,10.90
2018-12-03T16:34:50.623Z,10.90
2018-12-03T16:40:32.126Z,10.90
2018-12-03T16:49:25.031Z,10.90
2018-12-03T16:55:14.927Z,11.00
2018-12-03T16:58:02.357Z,11.00
2018-12-03T17:00:43.316Z,11.00
2018-12-03T17:06:22.084Z,11.00
2018-12-03T17:09:04.862Z,10.90
2018-12-03T17:11:44.526Z,10.90
2018-12-03T17:14:13.839Z,10.90
2018-12-03T17:29:10.543Z,10.70
2018-12-03T17:38:12.765Z,10.20
2018-12-03T17:40:44.091Z,10.10
2018-12-03T17:43:23.428Z,10.00
2018-12-03T17:46:04.612Z,9.90
2018-12-03T17:48:46.667Z,9.80
2018-12-03T17:51:28.208Z,9.60
2018-12-03T17:54:13.764Z,9.50
2018-12-03T17:56:55.531Z,9.50
2018-12-03T17:59:42.912Z,9.50
2018-12-03T18:05:30.702Z,9.30
2018-12-03T18:08:06.669Z,9.30
2018-12-03T18:10:51.745Z,9.30
2018-12-03T18:13:35.380Z,9.30
2018-12-03T18:16:27.378Z,9.30
2018-12-03T18:19:06.575Z,9.30
2018-12-03T18:21:50.653Z,9.20
2018-12-03T18:27:47.331Z,9.10
2018-12-03T18:30:32.955Z,9.10
2018-12-03T18:33:18.944Z,9.10
2018-12-03T18:36:04.520Z,9.10
2018-12-03T18:38:45.877Z,9.20
2018-12-03T18:41:25.989Z,9.30
2018-12-03T18:44:03.321Z,9.30
2018-12-03T18:46:48.837Z,9.30
2018-12-03T18:49:31.647Z,9.30
2018-12-03T18:55:22.774Z,9.40
2018-12-03T18:58:08.427Z,9.60
2018-12-03T19:00:45.579Z,9.70
2018-12-03T19:03:22.170Z,9.80
2018-12-03T19:06:03.541Z,9.90
2018-12-03T19:08:47.389Z,9.90
2018-12-03T19:11:36.111Z,9.90
2018-12-03T19:17:29.940Z,10.00
2018-12-03T19:20:17.824Z,10.10
2018-12-03T19:26:04.502Z,10.10
2018-12-03T19:28:35.607Z,10.10
2018-12-03T19:31:23.549Z,10.20
2018-12-03T19:34:01.203Z,10.20
2018-12-03T19:36:36.229Z,10.30
2018-12-03T19:39:17.482Z,10.30
2018-12-03T19:45:15.039Z,10.40
2018-12-03T19:54:10.830Z,10.20
2018-12-03T19:57:00.346Z,10.10
2018-12-03T19:59:46.189Z,10.10
2018-12-03T20:08:13.524Z,10.00
2018-12-03T20:10:57.279Z,10.10
2018-12-03T20:16:27.946Z,10.00
2018-12-03T20:19:09.810Z,10.10
2018-12-03T20:21:50.086Z,10.00
2018-12-03T20:27:45.531Z,10.00
2018-12-03T20:30:26.091Z,9.90
2018-12-03T20:33:05.097Z,9.80
2018-12-03T20:35:50.487Z,9.70
2018-12-03T20:41:41.358Z,9.70
2018-12-03T20:44:28.429Z,9.80
2018-12-03T20:50:14.205Z,9.90
2018-12-03T20:53:00.988Z,9.90
2018-12-03T20:55:40.182Z,10.00
2018-12-03T21:01:35.478Z,10.00
2018-12-03T21:04:12.849Z,10.00
2018-12-03T21:06:57.960Z,10.10
2018-12-03T21:09:47.837Z,10.20
2018-12-03T21:15:26.799Z,10.10
2018-12-03T21:18:02.138Z,10.10
2018-12-03T21:20:49.356Z,10.00
2018-12-03T21:23:24.899Z,10.00
2018-12-03T21:26:12.080Z,9.90
2018-12-03T21:28:53.602Z,9.90
2018-12-03T21:34:31.334Z,9.80
2018-12-03T21:46:00.549Z,9.60
2018-12-03T21:48:40.110Z,9.40
2018-12-03T21:54:36.844Z,9.30
2018-12-03T21:57:11.873Z,9.10
2018-12-03T22:00:01.038Z,9.00
2018-12-03T22:08:50.687Z,8.90
2018-12-03T22:11:27.677Z,8.80
2018-12-03T22:16:58.061Z,8.50
2018-12-03T22:19:43.218Z,8.00
2018-12-03T22:22:22.932Z,7.60
2018-12-03T22:25:04.839Z,7.40
2018-12-03T22:27:52.481Z,7.30
2018-12-03T22:33:36.235Z,7.20
2018-12-03T22:36:19.462Z,7.20
2018-12-03T22:42:16.493Z,7.10
2018-12-03T22:47:59.454Z,7.00
2018-12-03T22:50:47.289Z,7.00
2018-12-03T22:53:32.998Z,7.00
2018-12-03T22:56:18.698Z,6.90
2018-12-03T22:59:04.611Z,6.80
2018-12-03T23:04:51.763Z,6.80
2018-12-03T23:10:39.034Z,6.80
2018-12-03T23:13:24.688Z,6.60
2018-12-03T23:19:15.409Z,6.60
2018-12-03T23:21:52.674Z,6.60
2018-12-03T23:27:32.669Z,6.70
2018-12-03T23:30:16.882Z,6.70
2018-12-03T23:33:00.025Z,6.70
2018-12-03T23:35:45.689Z,6.80
2018-12-03T23:38:30.692Z,6.80
2018-12-03T23:41:15.556Z,6.80
2018-12-03T23:44:00.777Z,6.90
2018-12-03T23:46:38.074Z,6.90
2018-12-03T23:52:24.737Z,7.00
2018-12-03T23:55:11.221Z,7.00
2018-12-03T23:57:52.670Z,7.00
